AirNav   Duncan Aviation - Near you to keep you flying
 
 588 users online  

KHFY Indy South Greenwood Airport
Indianapolis, Indiana, USA

GOING TO INDIANAPOLIS?


FAA INFORMATION EFFECTIVE 03 NOVEMBER 2022

Location

FAA Identifier: HFY
Lat/Long: 39-37-39.4000N 086-05-16.9000W
39-37.656667N 086-05.281667W
39.6276111,-86.0880278
(estimated)
Elevation: 822.1 ft. / 250.6 m (surveyed)
Variation: 02W (1990)
From city: 10 miles SE of INDIANAPOLIS, IN
Time zone: UTC -5 (UTC -4 during Daylight Saving Time)
Zip code: 46143

Airport Operations

Airport use: Open to the public
Activation date: 09/1947
Control tower: no
ARTCC: INDIANAPOLIS CENTER
FSS: TERRE HAUTE FLIGHT SERVICE STATION
NOTAMs facility: HUF (NOTAM-D service available)
Attendance: MON-SAT 0700-1900, ALL SUN 0800-1700
ATTENDANT AFT HRS CALL (317) 760-4047.
Pattern altitude: 1622.1 ft. MSL
Wind indicator: lighted
Segmented circle: no
Lights: ACTVT REIL RWY 01; MIRL RWY 01/19 - CTAF.
Beacon: white-green (lighted land airport)
Operates sunset to sunrise.

Airport Communications

CTAF/UNICOM: 123.0
WX AWOS-3P: 118.525 (317-882-5862)
INDIANAPOLIS APPROACH: 124.95
INDIANAPOLIS DEPARTURE: 124.95
WX AWOS-3 at 8A4 (9 nm N): 135.525 (317-955-3160)
WX ASOS at IND (11 nm NW): PHONE 317-241-0348
WX ASOS at GEZ (13 nm E): 121.55 (317-398-0246)
WX ASOS at EYE (15 nm NW): 121.575 (317-329-1754)
WX AWOS-3 at MQJ (16 nm NE): 124.175 (317-335-3037)
WX AWOS-3 at HBE (18 nm S): 119.675 (812-526-1745)
WX AWOS-3 at UMP (19 nm N): 119.375 (317-842-3911)
WX AWOS-3P at 2R2 (19 nm W): 118.025 (317-718-4872)
  • APCH/DEP SVC PRVDD BY IND APCH ON 124.95.

Nearby radio navigation aids

VOR radial/distance  VOR name  Freq  Var
SHBr268/12.2SHELBYVILLE VOR/DME116.1501E
VHPr130/17.1BRICKYARD VORTAC116.3001E
OOMr042/37.9HOOSIER VORTAC110.2002W

 
NDB name  Hdg/Dist  Freq  Var  ID
METROPOLITAN188/18.733803WUMP ..- -- .--.
NEW CASTLE253/38.638506WUWL ..- .-- .-..

Airport Services

Fuel available: 100LL JET-A
Parking: hangars and tiedowns
Airframe service: MAJOR
Powerplant service: MAJOR
Bottled oxygen: HIGH/LOW
Bulk oxygen: HIGH/LOW

Runway Information

Runway 1/19

Dimensions: 5102 x 75 ft. / 1555 x 23 m
Surface: asphalt/grooved, in excellent condition
Runway edge lights: medium intensity
Operational restrictions: 10 FT DRAINAGE DITCH 125 FT R & L OF CNTRLN.
RUNWAY 1  RUNWAY 19
Latitude: 39-37.240030N39-38.072923N
Longitude: 086-05.353878W086-05.209362W
Elevation: 821.3 ft.819.6 ft.
Traffic pattern: leftleft
Runway heading: 010 magnetic, 008 true190 magnetic, 188 true
Displaced threshold: 102 ft.100 ft.
Markings: nonprecision, in good conditionnonprecision, in good condition
Visual slope indicator: 4-light PAPI on left (3.00 degrees glide path)4-light PAPI on left (3.00 degrees glide path)
Approach lights: ODALS: omnidirectional approach lighting system
Runway end identifier lights: yesno
Touchdown point: yes, no lightsyes, no lights
Obstructions: 36 ft. tree, 1125 ft. from runway, 25:1 slope to clear
APCH RATIO 34:1 AT DSPLCD THR.
13 ft. road, 570 ft. from runway, 280 ft. right of centerline, 28:1 slope to clear
APCH RATIO 47:1 AT DSPLCD THR.

Airport Ownership and Management from official FAA records

Ownership: Publicly-owned
Owner: GREENWOOD BOAC
300 S. MADISON AVE
GREENWOOD, IN 46142
Phone (317) 881-0887
Manager: RICK FERRILL
897 AIRPORT PKWY
GREENWOOD, IN 46143
Phone (317) 881-0887

Airport Operational Statistics

Aircraft based on the field: 91
Single engine airplanes: 79
Multi engine airplanes: 3
Jet airplanes: 5
Helicopters: 4
    
Aircraft operations: avg 77/day *
50% transient general aviation
43% local general aviation
4% military
3% air taxi
* for 12-month period ending 31 December 2018

Additional Remarks

HIGH INTENSITY STUDENT TRAINING.
GCO AVBL ON FREQ 121.725 THRU INDIANAPOLIS CLNC AND FLIGHT SERVICES - TO ACTVT 4 SLOW CLICKS. IF UNAVBL CALL 317-227-5743.
SELF SVC FUEL AVBL 24 HRS.

Instrument Procedures

NOTE: All procedures below are presented as PDF files. If you need a reader for these files, you should download the free Adobe Reader.

NOT FOR NAVIGATION. Please procure official charts for flight.
FAA instrument procedures published for use from 03 November 2022 at 0901Z to 01 December 2022 at 0900Z.

 
STARs - Standard Terminal Arrivals
RACYR SIX   download (228KB)
 
IAPs - Instrument Approach Procedures
RNAV (GPS) RWY 01   download (232KB)
RNAV (GPS) RWY 19   download (238KB)
VOR-A   download (178KB)
NOTE: Special Alternate Minimums apply   download
 
Departure Procedures
DAWNN ONE   2 pages: [1] [2] (301KB)
HOOSIER FIVE   download (219KB)
MAREO FIVE   download (204KB)
MEARZ SEVEN   2 pages: [1] [2] (284KB)
ROCKY ONE   download (232KB)
NOTE: Special Take-Off Minimums/Departure Procedures apply   download (271KB)

Other nearby airports with instrument procedures:

8A4 - Indianapolis Downtown Heliport (9 nm N)
KIND - Indianapolis International Airport (11 nm NW)
KGEZ - Shelbyville Municipal Airport (13 nm E)
KEYE - Eagle Creek Airpark (15 nm NW)
KMQJ - Indianapolis Regional Airport (16 nm NE)
KUMP - Indianapolis Metro Airport (19 nm N)
2R2 - Hendricks County Airport-Gordon Graham Field (19 nm W)
 
Loc | Ops | Rwys | IFR | FBO | Links
Com | Nav | Svcs | Stats | Notes
Area around KHFY (Indy South Greenwood Airport)
 
Road maps at: MapQuest Bing Google
 
Aerial photo
WARNING: Photo may not be current or correct
Aerial photo of KHFY (Indy South Greenwood Airport)
Photo by Mike Proctor
Photo taken 15-Jun-2007

Do you have a better or more recent aerial photo of Indy South Greenwood Airport that you would like to share? If so, please send us your photo.

 
Sectional chart

 
Airport diagram
CAUTION: Diagram may not be current
Diagram of KHFY (Indy South Greenwood Airport)
 
Airport distance calculator
Flying to Indy South Greenwood Airport? Find the distance to fly.

From to KHFY

Sunrise and sunset
Times for 28-Nov-2022
 Local
(UTC-5)
 Zulu
(UTC)
Morning civil twilight07:1412:14
Sunrise07:4412:44
Sunset17:2122:21
Evening civil twilight17:5022:50

Current date and time
Zulu (UTC)  28-Nov-2022 12:20:18
Local (UTC-5)  28-Nov-2022 07:20:18
 
METAR
KHFY 281155Z AUTO 00000KT 10SM SCT014 OVC025 06/05 A2992 RMK AO2 T00570050 10060 20056
KIND 
10nm NW 
281154Z 30003KT 10SM OVC028 05/03 A2991 RMK AO2 SLP132 60001 70040 T00500033 10050 20050 53017
KGEZ 
14nm E 
281153Z AUTO 29004KT 10SM OVC022 07/04 A2990 RMK AO2 SLP129 60000 70016 T00670044 10067 20067 53019
KMQJ 
16nm NE 
281155Z AUTO 31003KT 10SM OVC022 04/04 A2991 RMK AO1
KEYE 
16nm NW 
281153Z AUTO 30003KT 10SM OVC033 05/03 A2991 RMK AO2 SLP131 60001 70045 T00500033 10050 20044 53017
KUMP 
19nm N 
281155Z AUTO 00000KT 10SM SCT024 OVC036 05/04 A2992 RMK AO2 70017 T00530042 10061 20052
TAF
KIND 
10nm NW 
281120Z 2812/2918 31003KT P6SM BKN020 FM281900 21005KT P6SM OVC020 FM290100 17005KT P6SM BKN045 FM291600 17013G24KT P6SM BKN090
NOTAMs
Click for the latest NOTAMs
NOTAMs are issued by the DoD/FAA and will open in a separate window not controlled by AirNav.

 

 
 

FBO, Fuel Providers, and Aircraft Ground Support

  
 Business Name 
 
 Contact 
 
 Services / Description 
 
Fuel Prices
 
Comments
  
Indy South Greenwood Airport UNICOM 123.00
317-881-0887
[web site]
[email]
Enjoy the convenience of flying into downtown Indianapolis' closest airport! Less than 2 miles from interstate access and 15 minutes from downtown, we offer a 5100' runway, heated hangar accommodations, on-site courtesy & rental cars, crew lounge, quiet room, flight planning, & an updated terminal!
More info and photos of Indy South Greenwood Airport
 
NATA Safety 1st   U.S. Government AIR Card   CAA Preferred FBO   World Fuel Contract Fuel   Crew cars   National Business Aviation Association  
 
Phillips 66
100LL Jet A
FS $6.90 $6.70 
SS $6.30 $6.10 
GUARANTEED
 
   3 read write
FS=Full service
SS=Self service
Update Fuel Prices
 

Aviation Businesses, Services, and Facilities

  
 Business Name 
 
 Contact 
 
 Services / Description 
 
Distance
 
Comments
  
 BOLDAviation
317-745-4422
317-531-5864
[web site]
[email]

Like us on facebook
Oxygen service, Hangars, Flight training, Aircraft rental, Aircraft charters, Aircraft maintenance, Avionics sales and service, Aircraft modifications, ...
 
National Business Aviation Association  
 
More info about BOLDAviation
on airport  
   write
 

Would you like to see your business listed on this page?

 If your business provides an interesting product or service to pilots, flight crews, aircraft, or users of the Indy South Greenwood Airport, you should consider listing it here.  To start the listing process, click on the button below
 
Add a business
 

Other Pages about Indy South Greenwood Airport

www.greenwood.in.gov/...
 
Update a link
 
Copyright © AirNav, LLC. All rights reserved. Privacy Policy  Contact